Time;durP1;ratioP1;P1;durP2;ratioP2;P2;SDS_P1;SDS_P2;PMS_P1;PMS_P2;Temp;Humidity;BMP_temperature;BMP_pressure;BME280_temperature;BME280_humidity;BME280_pressure;Samples;Min_cycle;Max_cycle;Signal;HPM_P1;HPM_P2
2022/03/29 00:01:11;;;;;;;39.97;23.67;;;;;;;8.33;100.00;101770.72;4992866;28;20034;-66
2022/03/29 00:03:36;;;;;;;38.63;22.77;;;;;;;8.31;100.00;101759.34;5003881;28;20021;-65
2022/03/29 00:06:01;;;;;;;37.50;21.98;;;;;;;8.28;100.00;101769.09;4989700;28;20379;-66
2022/03/29 00:08:27;;;;;;;41.30;23.65;;;;;;;8.23;100.00;101765.66;5003455;28;20029;-65
2022/03/29 00:10:52;;;;;;;35.65;22.13;;;;;;;8.18;100.00;101758.72;4984454;28;20386;-67
2022/03/29 00:13:18;;;;;;;36.50;21.90;;;;;;;8.18;100.00;101758.72;4995689;28;20046;-65
2022/03/29 00:15:43;;;;;;;41.97;22.88;;;;;;;8.15;100.00;101760.56;4998599;28;20509;-65
2022/03/29 00:18:09;;;;;;;36.40;21.67;;;;;;;8.10;100.00;101750.06;4994853;28;20068;-65
2022/03/29 00:20:34;;;;;;;36.67;21.83;;;;;;;8.08;100.00;101743.09;5011653;28;20029;-66
2022/03/29 00:22:59;;;;;;;37.60;22.08;;;;;;;8.02;100.00;101742.31;5023471;28;20091;-65
2022/03/29 00:25:25;;;;;;;36.28;21.55;;;;;;;8.10;100.00;101744.81;4990535;28;20053;-65
2022/03/29 00:27:50;;;;;;;35.35;22.05;;;;;;;8.02;100.00;101734.41;4990523;28;20034;-65
2022/03/29 00:30:16;;;;;;;35.38;21.98;;;;;;;8.06;100.00;101735.22;4991212;28;20066;-66
2022/03/29 00:32:44;;;;;;;34.13;21.13;;;;;;;8.07;100.00;101722.88;4989646;28;20414;-66
2022/03/29 00:35:10;;;;;;;34.88;20.65;;;;;;;8.02;100.00;101718.56;4992258;28;20025;-65
2022/03/29 00:37:37;;;;;;;38.10;21.77;;;;;;;8.01;100.00;101724.75;4995845;28;20529;-65
2022/03/29 00:40:03;;;;;;;35.63;20.33;;;;;;;8.04;100.00;101722.06;5000391;28;20039;-66
2022/03/29 00:42:30;;;;;;;36.38;21.20;;;;;;;8.05;100.00;101717.66;4997979;28;20049;-66
2022/03/29 00:44:56;;;;;;;38.15;21.92;;;;;;;8.12;100.00;101715.75;4990168;28;20038;-66
2022/03/29 00:47:22;;;;;;;37.28;21.25;;;;;;;8.13;100.00;101715.72;4992103;28;20434;-65
2022/03/29 00:49:48;;;;;;;35.13;21.23;;;;;;;8.17;100.00;101714.75;4992932;28;20027;-66
2022/03/29 00:52:14;;;;;;;36.30;21.48;;;;;;;8.16;100.00;101715.66;4998233;28;20026;-67
2022/03/29 00:54:43;;;;;;;35.33;20.17;;;;;;;8.15;100.00;101707.78;4988091;28;20049;-67
2022/03/29 00:57:11;;;;;;;33.95;20.73;;;;;;;8.17;100.00;101705.97;4991624;28;20046;-65
2022/03/29 00:59:38;;;;;;;32.88;19.25;;;;;;;8.15;100.00;101710.41;5004449;28;20056;-65
2022/03/29 01:02:05;;;;;;;33.83;19.02;;;;;;;8.12;100.00;101710.47;5026205;28;20473;-66
2022/03/29 01:04:31;;;;;;;32.90;19.58;;;;;;;7.98;100.00;101703.72;4992315;28;20117;-67
2022/03/29 01:06:58;;;;;;;36.45;21.42;;;;;;;7.92;100.00;101701.19;4995441;28;20117;-65
2022/03/29 01:09:27;;;;;;;35.22;20.63;;;;;;;7.86;100.00;101707.47;4995136;28;20089;-65
2022/03/29 01:11:53;;;;;;;34.08;19.10;;;;;;;7.85;100.00;101708.38;5021718;28;20584;-65
2022/03/29 01:14:26;;;;;;;33.45;19.98;;;;;;;7.84;100.00;101706.63;4998600;28;20040;-67
2022/03/29 01:19:38;;;;;;;35.20;20.27;;;;;;;7.75;100.00;101698.91;4998450;28;20556;-66
2022/03/29 01:22:07;;;;;;;35.78;20.02;;;;;;;7.76;100.00;101689.22;5004052;28;20409;-66
2022/03/29 01:24:34;;;;;;;33.42;19.52;;;;;;;7.77;100.00;101691.81;4994938;28;20022;-64
2022/03/29 01:27:02;;;;;;;36.50;19.65;;;;;;;7.69;100.00;101686.69;5007559;28;20040;-67
2022/03/29 01:29:32;;;;;;;37.42;21.02;;;;;;;7.66;100.00;101681.47;4990972;28;20089;-67
2022/03/29 01:32:02;;;;;;;36.88;20.17;;;;;;;7.66;100.00;101685.88;4976250;28;20038;-65
2022/03/29 01:34:28;;;;;;;32.13;19.48;;;;;;;7.64;100.00;101691.19;5008155;28;20023;-65
2022/03/29 01:36:55;;;;;;;37.88;21.63;;;;;;;7.68;100.00;101673.53;4991112;28;20110;-65
2022/03/29 01:39:20;;;;;;;35.35;20.30;;;;;;;7.69;100.00;101683.19;4983957;28;20554;-64
2022/03/29 01:41:47;;;;;;;34.08;20.92;;;;;;;7.73;100.00;101676.97;4998934;28;20149;-66
2022/03/29 01:44:12;;;;;;;36.65;21.05;;;;;;;7.74;100.00;101680.44;5000680;28;20041;-66
2022/03/29 01:46:38;;;;;;;33.67;19.63;;;;;;;7.71;100.00;101673.47;4991742;28;20034;-65
2022/03/29 01:49:05;;;;;;;37.40;21.13;;;;;;;7.69;100.00;101670.00;4997143;28;20140;-65
2022/03/29 01:51:31;;;;;;;35.10;20.40;;;;;;;7.75;100.00;101669.91;4991544;28;20034;-66
2022/03/29 01:53:59;;;;;;;36.47;20.83;;;;;;;7.60;100.00;101671.06;4994794;28;20037;-66
2022/03/29 01:56:32;;;;;;;37.33;21.48;;;;;;;7.51;100.00;101660.69;4994331;28;20022;-66
2022/03/29 01:58:58;;;;;;;38.35;21.17;;;;;;;7.54;100.00;101650.97;4996292;28;20042;-66
2022/03/29 02:01:23;;;;;;;39.35;21.67;;;;;;;7.63;100.00;101659.59;4988714;28;20026;-66
2022/03/29 02:03:49;;;;;;;35.80;20.95;;;;;;;7.65;100.00;101645.47;5002515;28;20031;-66
2022/03/29 02:06:14;;;;;;;37.50;22.02;;;;;;;7.52;100.00;101654.53;4988541;28;20033;-66
2022/03/29 02:08:39;;;;;;;35.85;20.15;;;;;;;7.55;100.00;101650.03;5014567;28;20053;-66
2022/03/29 02:11:06;;;;;;;37.63;21.20;;;;;;;7.49;100.00;101644.91;4994195;28;20046;-66
2022/03/29 02:13:32;;;;;;;36.90;21.27;;;;;;;7.59;100.00;101639.47;4980623;28;20545;-66
2022/03/29 02:15:58;;;;;;;37.25;21.33;;;;;;;7.57;100.00;101636.84;4956070;28;20030;-66
2022/03/29 02:18:23;;;;;;;35.50;20.58;;;;;;;7.58;100.00;101630.66;4952601;28;20038;-65
2022/03/29 02:20:48;;;;;;;38.03;21.20;;;;;;;7.60;100.00;101635.94;4965945;28;20031;-66
2022/03/29 02:23:14;;;;;;;32.90;20.20;;;;;;;7.63;100.00;101635.84;4945090;28;20034;-66
2022/03/29 02:25:40;;;;;;;34.63;20.35;;;;;;;7.63;100.00;101625.31;4944918;28;20039;-65
2022/03/29 02:28:05;;;;;;;37.13;20.77;;;;;;;7.60;100.00;101625.38;4951880;28;20050;-66
2022/03/29 02:30:32;;;;;;;39.92;21.77;;;;;;;7.63;100.00;101614.75;4948584;28;20042;-66
2022/03/29 02:32:58;;;;;;;37.83;21.48;;;;;;;7.56;100.00;101611.41;4952284;28;20036;-65
2022/03/29 02:35:23;;;;;;;36.97;21.10;;;;;;;7.60;100.00;101620.97;4951389;28;20060;-66
2022/03/29 02:37:49;;;;;;;38.92;20.20;;;;;;;7.60;100.00;101609.56;4949972;28;20081;-66
2022/03/29 02:40:14;;;;;;;34.42;19.73;;;;;;;7.62;100.00;101610.38;4950999;28;20034;-66
2022/03/29 02:42:44;;;;;;;34.47;18.92;;;;;;;7.58;100.00;101609.56;4951854;28;20042;-66
2022/03/29 02:45:17;;;;;;;35.58;19.55;;;;;;;7.45;100.00;101600.19;4941903;29;20035;-66
2022/03/29 02:47:54;;;;;;;34.38;20.10;;;;;;;7.37;100.00;101600.34;4946361;28;20054;-66
2022/03/29 02:50:21;;;;;;;34.78;19.67;;;;;;;7.34;100.00;101601.28;4942405;28;20039;-65
2022/03/29 02:52:48;;;;;;;35.97;20.67;;;;;;;7.38;100.00;101587.13;4952705;28;20030;-66
2022/03/29 02:55:15;;;;;;;35.35;20.40;;;;;;;7.35;100.00;101586.31;4950513;28;20042;-66
2022/03/29 02:57:42;;;;;;;36.00;20.92;;;;;;;7.28;100.00;101588.22;4954494;29;20037;-65
2022/03/29 03:00:09;;;;;;;41.38;21.23;;;;;;;7.30;100.00;101580.25;4946934;28;20035;-65
2022/03/29 03:02:35;;;;;;;37.78;21.08;;;;;;;7.33;100.00;101577.59;4943490;28;20085;-66
2022/03/29 03:05:01;;;;;;;35.83;19.85;;;;;;;7.34;100.00;101574.03;4943506;28;20031;-66
2022/03/29 03:07:27;;;;;;;36.03;20.23;;;;;;;7.37;100.00;101574.84;4946907;28;20047;-66
2022/03/29 03:09:53;;;;;;;36.70;20.13;;;;;;;7.33;100.00;101567.91;4949909;28;20075;-65
2022/03/29 03:12:18;;;;;;;36.92;20.52;;;;;;;7.31;100.00;101572.31;4968344;28;20082;-65
2022/03/29 03:14:44;;;;;;;41.50;22.38;;;;;;;7.35;100.00;101574.03;4987961;28;20026;-65
2022/03/29 03:17:09;;;;;;;38.28;21.73;;;;;;;7.34;100.00;101571.41;4996187;28;20113;-65
2022/03/29 03:19:34;;;;;;;38.10;21.65;;;;;;;7.43;100.00;101559.81;4991991;28;20026;-66
2022/03/29 03:22:00;;;;;;;36.97;20.75;;;;;;;7.31;100.00;101564.41;4997794;28;20040;-66
2022/03/29 03:24:25;;;;;;;40.65;21.70;;;;;;;7.24;100.00;101567.22;4993682;28;20034;-66
2022/03/29 03:26:51;;;;;;;40.58;21.55;;;;;;;7.20;100.00;101558.53;4986422;28;20046;-67
2022/03/29 03:29:16;;;;;;;43.45;22.77;;;;;;;7.16;100.00;101544.53;4986667;28;20057;-65
2022/03/29 03:31:41;;;;;;;42.15;23.23;;;;;;;7.20;100.00;101547.97;4989469;28;20068;-65
2022/03/29 03:34:07;;;;;;;41.40;22.63;;;;;;;7.23;100.00;101542.66;4970844;28;20026;-65
2022/03/29 03:36:32;;;;;;;47.42;24.00;;;;;;;7.23;100.00;101550.53;4999732;28;20035;-65
2022/03/29 03:38:58;;;;;;;42.67;23.73;;;;;;;7.27;100.00;101546.09;4990938;28;20205;-66
2022/03/29 03:41:23;;;;;;;44.92;22.85;;;;;;;7.30;100.00;101546.03;4986358;28;20430;-66
2022/03/29 03:43:48;;;;;;;45.30;23.50;;;;;;;7.18;100.00;101540.09;4987546;28;20474;-66
2022/03/29 03:46:14;;;;;;;46.30;23.90;;;;;;;7.17;100.00;101530.47;4983472;28;20076;-66
2022/03/29 03:48:39;;;;;;;45.90;24.08;;;;;;;7.21;100.00;101532.13;4970734;28;20080;-66
2022/03/29 03:51:04;;;;;;;46.15;23.33;;;;;;;7.19;100.00;101533.94;4990685;28;20038;-66
2022/03/29 03:53:30;;;;;;;46.40;23.30;;;;;;;7.12;100.00;101515.63;4985685;28;20494;-66
2022/03/29 03:55:55;;;;;;;50.55;24.52;;;;;;;7.09;100.00;101523.63;4988737;28;20101;-66
2022/03/29 03:58:21;;;;;;;50.53;25.33;;;;;;;7.17;100.00;101517.31;4982650;28;20097;-66
2022/03/29 04:00:47;;;;;;;51.83;26.50;;;;;;;7.17;100.00;101514.66;4988329;28;20046;-65
2022/03/29 04:03:12;;;;;;;51.47;24.70;;;;;;;7.22;100.00;101514.56;4986527;28;20035;-66
2022/03/29 04:05:38;;;;;;;60.13;26.73;;;;;;;7.27;100.00;101512.69;4993133;28;20034;-65
2022/03/29 04:08:04;;;;;;;53.53;26.80;;;;;;;7.22;100.00;101504.03;4994554;28;20030;-66
2022/03/29 04:10:29;;;;;;;55.83;26.50;;;;;;;7.20;100.00;101501.44;4986857;28;20126;-65
2022/03/29 04:12:55;;;;;;;58.33;27.55;;;;;;;7.22;100.00;101509.28;4994509;28;20062;-66
2022/03/29 04:15:20;;;;;;;65.70;29.25;;;;;;;7.27;100.00;101504.78;4991537;28;20026;-65
2022/03/29 04:17:46;;;;;;;62.55;27.98;;;;;;;7.26;100.00;101503.06;4990750;28;20038;-65
2022/03/29 04:20:11;;;;;;;58.80;27.20;;;;;;;7.30;100.00;101499.47;4977091;28;20050;-67
2022/03/29 04:22:37;;;;;;;57.35;27.40;;;;;;;7.37;100.00;101501.06;4994677;28;20027;-66
2022/03/29 04:25:02;;;;;;;58.20;27.27;;;;;;;7.34;100.00;101498.50;4989285;28;20030;-66
2022/03/29 04:27:28;;;;;;;59.38;26.85;;;;;;;7.35;100.00;101486.19;4991150;28;20105;-65
2022/03/29 04:29:53;;;;;;;57.80;26.48;;;;;;;7.29;100.00;101484.56;4986231;28;20097;-66
2022/03/29 04:32:19;;;;;;;57.65;27.00;;;;;;;7.25;100.00;101490.81;4982916;28;20138;-66
2022/03/29 04:34:46;;;;;;;54.92;25.52;;;;;;;7.17;100.00;101495.34;4994021;28;20030;-66
2022/03/29 04:37:12;;;;;;;53.97;25.48;;;;;;;7.08;100.00;101488.50;4990961;28;20050;-66
2022/03/29 04:39:38;;;;;;;51.00;25.52;;;;;;;7.12;100.00;101489.31;4985051;28;20034;-66
2022/03/29 04:42:04;;;;;;;56.22;26.38;;;;;;;7.17;100.00;101493.59;4983189;28;20061;-65
2022/03/29 04:44:30;;;;;;;55.60;26.55;;;;;;;7.17;100.00;101477.78;4992670;28;20054;-65
2022/03/29 04:46:55;;;;;;;53.20;25.73;;;;;;;7.13;100.00;101483.16;4995981;28;20069;-65
2022/03/29 04:49:21;;;;;;;56.58;25.05;;;;;;;7.10;100.00;101486.72;4992943;28;20030;-65
2022/03/29 04:51:46;;;;;;;54.58;26.45;;;;;;;7.04;100.00;101494.72;4982785;28;20045;-67
2022/03/29 04:54:12;;;;;;;51.88;24.98;;;;;;;7.02;100.00;101480.69;4990161;28;20116;-66
2022/03/29 04:56:37;;;;;;;57.15;27.40;;;;;;;7.04;100.00;101492.94;4985810;28;20034;-65
2022/03/29 04:59:03;;;;;;;57.58;26.77;;;;;;;7.08;100.00;101474.47;4987754;28;20327;-67
2022/03/29 05:01:28;;;;;;;56.35;25.23;;;;;;;7.05;100.00;101472.75;4984896;28;20038;-66
2022/03/29 05:03:54;;;;;;;62.13;27.90;;;;;;;6.88;100.00;101473.97;4990609;28;20042;-68
2022/03/29 05:06:19;;;;;;;64.53;28.70;;;;;;;6.76;100.00;101473.31;4976202;28;20459;-67
2022/03/29 05:08:44;;;;;;;62.85;28.25;;;;;;;6.84;100.00;101480.19;4987783;28;20026;-66
2022/03/29 05:11:10;;;;;;;62.30;26.90;;;;;;;6.96;100.00;101473.81;4977223;28;20080;-66
2022/03/29 05:13:35;;;;;;;63.70;29.17;;;;;;;6.94;100.00;101478.22;4978248;28;20054;-66
2022/03/29 05:16:01;;;;;;;56.85;25.58;;;;;;;6.89;100.00;101473.06;4998019;28;20038;-66
2022/03/29 05:18:27;;;;;;;52.78;26.20;;;;;;;6.87;100.00;101472.22;4995038;28;20057;-66
2022/03/29 05:20:52;;;;;;;53.63;25.90;;;;;;;6.84;100.00;101471.41;4991997;28;20026;-66
2022/03/29 05:23:20;;;;;;;56.42;25.70;;;;;;;6.82;100.00;101460.06;4992127;28;20176;-66
2022/03/29 05:25:45;;;;;;;52.38;26.00;;;;;;;6.79;100.00;101465.34;4990332;28;20030;-66
2022/03/29 05:28:11;;;;;;;55.95;26.48;;;;;;;6.75;100.00;101471.59;4987661;28;20043;-67
2022/03/29 05:30:36;;;;;;;51.08;25.15;;;;;;;6.76;100.00;101468.91;4991396;28;20053;-66
2022/03/29 05:33:03;;;;;;;61.95;27.90;;;;;;;6.78;100.00;101471.50;4993173;28;20113;-67
2022/03/29 05:35:30;;;;;;;51.67;25.33;;;;;;;6.78;100.00;101463.63;4991678;28;20574;-67
2022/03/29 05:37:57;;;;;;;48.15;24.88;;;;;;;6.80;100.00;101462.69;4999355;28;20424;-66
2022/03/29 05:40:24;;;;;;;52.92;25.23;;;;;;;6.77;100.00;101469.81;5000059;28;20030;-67
2022/03/29 05:42:50;;;;;;;52.20;25.20;;;;;;;6.75;100.00;101472.44;4991291;28;20037;-66
2022/03/29 05:45:15;;;;;;;49.63;25.20;;;;;;;6.75;100.00;101474.22;5007272;28;20042;-68
2022/03/29 05:50:27;;;;;;;46.70;22.65;;;;;;;6.80;100.00;101481.13;5000665;28;20085;-68
2022/03/29 05:52:53;;;;;;;41.47;21.20;;;;;;;6.79;100.00;101479.41;4994150;28;20034;-68
2022/03/29 05:55:19;;;;;;;43.85;22.65;;;;;;;6.80;100.00;101480.25;4993001;28;20033;-66
2022/03/29 05:57:44;;;;;;;42.33;21.25;;;;;;;6.82;100.00;101484.59;4994254;28;20054;-68
2022/03/29 06:00:11;;;;;;;39.97;21.48;;;;;;;6.77;100.00;101481.19;4994092;28;20034;-65
2022/03/29 06:02:38;;;;;;;40.38;21.42;;;;;;;6.60;100.00;101494.66;4975232;28;20102;-66
2022/03/29 06:05:04;;;;;;;42.40;20.88;;;;;;;6.65;100.00;101481.41;4959064;28;20109;-66
2022/03/29 06:07:29;;;;;;;40.47;20.90;;;;;;;6.72;100.00;101483.03;4993670;28;20937;-67
2022/03/29 06:09:55;;;;;;;42.42;22.02;;;;;;;6.72;100.00;101473.38;4996701;28;20157;-67
2022/03/29 06:12:21;;;;;;;41.72;23.05;;;;;;;6.69;100.00;101476.06;4993400;28;20058;-66
2022/03/29 06:14:47;;;;;;;40.88;21.38;;;;;;;6.79;100.00;101473.25;5003762;28;20413;-67
2022/03/29 06:17:12;;;;;;;41.05;21.83;;;;;;;6.84;100.00;101471.41;4999317;28;20508;-68
2022/03/29 06:19:37;;;;;;;42.03;21.10;;;;;;;6.80;100.00;101467.09;5012275;28;20042;-68
2022/03/29 06:22:04;;;;;;;37.40;20.15;;;;;;;6.79;100.00;101468.00;5020819;28;20027;-67
2022/03/29 06:24:30;;;;;;;40.35;21.55;;;;;;;6.83;100.00;101467.03;4993799;28;20449;-67
2022/03/29 06:26:55;;;;;;;44.10;22.73;;;;;;;6.84;100.00;101472.28;4993467;28;20453;-67
2022/03/29 06:29:20;;;;;;;42.85;23.15;;;;;;;6.90;100.00;101471.28;4993701;28;20027;-67
2022/03/29 06:31:46;;;;;;;42.67;22.75;;;;;;;6.88;100.00;101473.97;4977377;28;20065;-66
2022/03/29 06:34:11;;;;;;;40.08;22.48;;;;;;;6.90;100.00;101468.66;5008854;28;20552;-67
2022/03/29 06:36:37;;;;;;;47.65;23.23;;;;;;;6.85;100.00;101478.41;4993628;28;20650;-67
2022/03/29 06:39:03;;;;;;;46.42;23.40;;;;;;;6.76;100.00;101478.59;4991986;28;20030;-67
2022/03/29 06:41:28;;;;;;;42.88;23.05;;;;;;;6.80;100.00;101477.63;4982655;28;20657;-67
2022/03/29 06:43:54;;;;;;;41.90;21.27;;;;;;;6.79;100.00;101476.78;4984671;28;20038;-67
2022/03/29 06:46:19;;;;;;;44.97;22.33;;;;;;;6.81;100.00;101482.00;4992001;28;20109;-67
2022/03/29 06:48:45;;;;;;;42.55;22.50;;;;;;;6.76;100.00;101481.22;4993340;28;20080;-67
2022/03/29 06:51:13;;;;;;;47.50;23.73;;;;;;;6.76;100.00;101483.84;5003656;28;20105;-67
2022/03/29 06:53:40;;;;;;;47.33;22.77;;;;;;;6.74;100.00;101481.25;4996659;28;20038;-67
2022/03/29 06:56:07;;;;;;;44.78;22.75;;;;;;;6.84;100.00;101471.41;4993352;28;20045;-67
2022/03/29 06:58:34;;;;;;;42.53;22.45;;;;;;;6.92;100.00;101466.88;4991910;28;20429;-67
2022/03/29 07:00:59;;;;;;;40.88;21.65;;;;;;;6.87;100.00;101468.72;4993193;28;20744;-66
2022/03/29 07:03:25;;;;;;;44.75;23.35;;;;;;;6.83;100.00;101470.53;4992565;28;20066;-66
2022/03/29 07:05:50;;;;;;;45.92;22.60;;;;;;;6.92;100.00;101480.03;4975820;28;20030;-67
2022/03/29 07:08:20;;;;;;;46.55;23.27;;;;;;;6.94;100.00;101480.00;4975659;28;20061;-66
2022/03/29 07:13:30;;;;;;;41.30;21.27;;;;;;;6.84;100.00;101480.19;4991510;28;20098;-67
2022/03/29 07:15:55;;;;;;;40.83;21.05;;;;;;;6.87;100.00;101482.75;4992505;28;20038;-67
2022/03/29 07:18:21;;;;;;;41.38;20.92;;;;;;;6.81;100.00;101482.84;4992989;28;20504;-67
2022/03/29 07:20:46;;;;;;;37.92;20.20;;;;;;;6.75;100.00;101476.84;4992285;28;20117;-67
2022/03/29 07:23:12;;;;;;;38.40;20.20;;;;;;;6.75;100.00;101477.69;4991805;28;20053;-67
2022/03/29 07:25:37;;;;;;;38.20;19.50;;;;;;;6.83;100.00;101478.44;4992939;28;20489;-67
2022/03/29 07:28:03;;;;;;;37.67;19.63;;;;;;;6.91;100.00;101483.56;4999733;28;20080;-67
2022/03/29 07:30:30;;;;;;;37.67;19.75;;;;;;;6.95;100.00;101481.75;5006657;28;20034;-67
2022/03/29 07:32:57;;;;;;;36.58;18.55;;;;;;;7.10;100.00;101485.81;5010469;28;20030;-67
2022/03/29 07:35:25;;;;;;;37.38;19.38;;;;;;;7.18;100.00;101481.28;5021258;28;20069;-67
2022/03/29 07:37:51;;;;;;;34.67;18.67;;;;;;;7.25;100.00;101482.91;4991895;28;20062;-68
2022/03/29 07:40:20;;;;;;;34.88;19.25;;;;;;;7.13;100.00;101476.09;4995038;28;20025;-67
2022/03/29 07:42:45;;;;;;;37.25;19.00;;;;;;;7.24;100.00;101473.25;4988568;28;20113;-67
2022/03/29 07:45:11;;;;;;;33.97;19.08;;;;;;;7.38;100.00;101475.59;4991789;28;20121;-66
2022/03/29 07:47:37;;;;;;;34.15;19.45;;;;;;;7.43;100.00;101475.50;4992482;28;20038;-67
2022/03/29 07:50:06;;;;;;;32.35;18.23;;;;;;;7.45;100.00;101481.59;4992095;28;20029;-67
2022/03/29 07:52:35;;;;;;;32.35;18.83;;;;;;;7.53;100.00;101471.75;4992034;28;20498;-67
2022/03/29 07:55:02;;;;;;;32.50;17.63;;;;;;;7.60;99.42;101476.00;4988133;28;20023;-67
2022/03/29 07:57:28;;;;;;;33.95;18.98;;;;;;;7.55;98.52;101468.19;4992398;28;20034;-67
2022/03/29 07:59:53;;;;;;;32.47;18.33;;;;;;;7.58;98.60;101461.13;4990270;28;20500;-67
2022/03/29 08:02:19;;;;;;;34.85;18.58;;;;;;;7.74;97.38;101473.06;4989048;28;20022;-66
2022/03/29 08:04:44;;;;;;;29.92;18.42;;;;;;;7.73;97.47;101465.19;4991393;28;20138;-66
2022/03/29 08:07:09;;;;;;;33.55;17.75;;;;;;;7.73;96.92;101471.31;4991375;28;20060;-66
2022/03/29 08:09:35;;;;;;;32.45;18.23;;;;;;;7.70;97.07;101472.25;4985371;28;20037;-67
2022/03/29 08:12:00;;;;;;;34.38;19.48;;;;;;;7.65;96.03;101463.59;5002274;28;20064;-67
2022/03/29 08:14:26;;;;;;;33.63;18.33;;;;;;;7.51;96.76;101460.41;4986095;28;20142;-67
2022/03/29 08:16:53;;;;;;;29.58;17.77;;;;;;;7.60;97.62;101462.81;4985384;28;20038;-67
2022/03/29 08:19:19;;;;;;;30.30;17.30;;;;;;;7.73;96.31;101467.81;4982793;28;20538;-67
2022/03/29 08:21:49;;;;;;;33.92;18.23;;;;;;;7.78;96.76;101468.59;4991641;28;20030;-66
2022/03/29 08:24:15;;;;;;;34.10;18.80;;;;;;;7.82;97.13;101480.78;4991482;28;20077;-67
2022/03/29 08:26:41;;;;;;;35.33;19.10;;;;;;;7.83;97.01;101464.06;4990895;28;20026;-67
2022/03/29 08:29:06;;;;;;;34.72;18.20;;;;;;;8.08;95.84;101461.72;4990863;28;20559;-67
2022/03/29 08:31:32;;;;;;;32.72;18.30;;;;;;;8.15;94.87;101460.66;4977630;28;20042;-67
2022/03/29 08:33:57;;;;;;;30.73;17.67;;;;;;;8.33;93.82;101464.59;4992474;28;20034;-67
2022/03/29 08:36:22;;;;;;;33.80;18.25;;;;;;;8.53;93.53;101461.47;4988165;28;20386;-67
2022/03/29 08:38:48;;;;;;;33.03;18.60;;;;;;;8.61;92.57;101463.91;4991269;28;20034;-66
2022/03/29 08:41:13;;;;;;;35.15;19.13;;;;;;;8.68;90.68;101461.97;4997925;28;20036;-66
2022/03/29 08:43:40;;;;;;;32.60;18.13;;;;;;;8.69;91.73;101461.06;4999467;28;20044;-65
2022/03/29 08:46:05;;;;;;;31.70;17.98;;;;;;;8.86;91.51;101460.59;4990962;28;20157;-67
2022/03/29 08:48:30;;;;;;;31.73;18.20;;;;;;;8.88;90.00;101455.28;4990713;28;20109;-66
2022/03/29 08:50:59;;;;;;;32.38;16.75;;;;;;;9.18;89.52;101448.25;4997409;28;20025;-66
2022/03/29 08:53:24;;;;;;;29.38;17.20;;;;;;;9.10;89.02;101456.41;4995272;28;20045;-67
2022/03/29 08:55:50;;;;;;;27.45;16.48;;;;;;;9.01;88.69;101451.38;5004127;28;20435;-66
2022/03/29 08:58:21;;;;;;;30.60;17.17;;;;;;;9.07;89.76;101455.66;5005025;28;20490;-67
2022/03/29 09:00:49;;;;;;;29.98;16.52;;;;;;;9.15;88.82;101448.34;4983452;28;20489;-67
2022/03/29 09:03:16;;;;;;;30.77;17.80;;;;;;;9.14;88.20;101447.50;4990875;28;20034;-68
2022/03/29 09:05:41;;;;;;;30.10;17.23;;;;;;;9.10;88.97;101450.25;4991073;28;20161;-67
2022/03/29 09:08:13;;;;;;;29.95;17.50;;;;;;;9.11;87.78;101437.00;4990980;28;20120;-66
2022/03/29 09:10:50;;;;;;;27.48;16.33;;;;;;;9.20;87.47;101448.22;4977079;28;20494;-67
2022/03/29 09:13:27;;;;;;;30.27;17.30;;;;;;;9.16;86.57;101447.44;4973541;28;20078;-66
2022/03/29 09:15:54;;;;;;;27.92;16.67;;;;;;;9.15;86.68;101448.34;4989611;28;20073;-66
2022/03/29 09:18:21;;;;;;;30.17;16.73;;;;;;;9.19;87.74;101449.97;4991297;28;20089;-67
2022/03/29 09:20:47;;;;;;;30.88;17.42;;;;;;;9.27;87.87;101444.47;4992670;28;20081;-68
2022/03/29 09:23:15;;;;;;;35.20;18.65;;;;;;;9.14;88.39;101447.50;4977091;28;20486;-67
2022/03/29 09:25:48;;;;;;;33.15;17.60;;;;;;;9.32;88.96;101451.38;4987375;28;20030;-67
2022/03/29 09:28:19;;;;;;;31.85;18.25;;;;;;;9.44;87.11;101450.13;4989041;28;20042;-66
2022/03/29 09:30:52;;;;;;;30.63;17.10;;;;;;;9.23;87.24;101446.34;4992270;28;20026;-67
2022/03/29 09:33:30;;;;;;;33.40;18.15;;;;;;;9.20;89.20;101443.78;4994055;28;20038;-67
2022/03/29 09:36:03;;;;;;;32.03;18.52;;;;;;;9.23;88.29;101451.63;4986217;28;20080;-67
2022/03/29 09:38:41;;;;;;;32.17;18.30;;;;;;;9.21;87.46;101440.25;4994429;28;20125;-68
2022/03/29 09:41:20;;;;;;;32.15;18.17;;;;;;;9.42;88.61;101433.44;4993812;28;20037;-67
2022/03/29 09:44:02;;;;;;;32.85;18.33;;;;;;;9.77;87.49;101433.25;4984029;28;20478;-67
2022/03/29 09:46:27;;;;;;;;;;;;;;;10.16;86.32;101430.22;4992687;28;20112;-67
2022/03/29 09:48:59;;;;;;;32.67;17.50;;;;;;;10.56;81.94;101433.31;4994001;28;20017;-68
2022/03/29 09:51:27;;;;;;;;;;;;;;;10.56;81.85;101435.97;4993354;28;20022;-66
2022/03/29 09:53:56;;;;;;;33.03;17.38;;;;;;;10.43;82.25;101431.06;4991389;28;20388;-67
2022/03/29 09:56:30;;;;;;;32.35;17.75;;;;;;;10.18;83.86;101423.09;4993654;28;20038;-66
2022/03/29 09:59:14;;;;;;;33.10;17.10;;;;;;;10.38;83.17;101418.94;4993244;28;20508;-66
2022/03/29 10:01:53;;;;;;;34.58;18.30;;;;;;;10.71;81.74;101416.88;4993560;28;20034;-66
2022/03/29 10:04:20;;;;;;;34.83;18.33;;;;;;;10.63;81.10;101419.78;4993727;28;20030;-67
2022/03/29 10:06:48;;;;;;;29.15;16.48;;;;;;;10.84;79.57;101424.38;4992354;28;20042;-68
2022/03/29 10:09:26;;;;;;;31.25;18.10;;;;;;;10.77;79.97;101421.09;4993499;28;20579;-68
2022/03/29 10:12:05;;;;;;;31.92;17.02;;;;;;;10.81;80.09;101412.97;4993367;28;20045;-67
2022/03/29 10:14:38;;;;;;;32.15;17.38;;;;;;;10.74;79.93;101421.19;4993280;28;20046;-67
2022/03/29 10:17:04;;;;;;;34.95;17.92;;;;;;;10.71;79.45;101410.72;4993204;28;20030;-67
2022/03/29 10:19:30;;;;;;;30.65;18.10;;;;;;;10.31;81.24;101411.16;4992234;28;20022;-67
2022/03/29 10:21:58;;;;;;;29.33;16.90;;;;;;;10.04;82.71;101414.75;4993616;28;20045;-66
2022/03/29 10:24:24;;;;;;;30.85;17.70;;;;;;;10.07;82.28;101412.88;4976091;28;20022;-66
2022/03/29 10:26:52;;;;;;;31.08;16.92;;;;;;;10.03;83.37;101411.25;4993125;28;20090;-66
2022/03/29 10:29:18;;;;;;;30.25;16.73;;;;;;;10.32;83.41;101412.06;4993604;28;20080;-67
2022/03/29 10:31:55;;;;;;;28.88;17.10;;;;;;;10.32;81.63;101412.91;4975816;28;20660;-67
2022/03/29 10:34:25;;;;;;;33.05;16.27;;;;;;;10.49;82.23;101408.84;4993560;28;20056;-67
2022/03/29 10:37:12;;;;;;;32.88;17.67;;;;;;;10.46;81.18;101408.91;4975664;28;20034;-67
2022/03/29 10:39:53;;;;;;;30.38;16.70;;;;;;;10.71;81.13;101411.56;4976369;28;20474;-67
2022/03/29 10:42:32;;;;;;;32.03;17.47;;;;;;;10.91;80.78;101399.41;4993004;28;20363;-66
2022/03/29 10:45:16;;;;;;;30.83;17.65;;;;;;;11.23;78.72;101397.31;4992642;28;20301;-66
2022/03/29 10:48:02;;;;;;;28.80;17.20;;;;;;;11.60;77.31;101399.34;4972729;28;20038;-66
2022/03/29 10:50:54;;;;;;;30.73;17.95;;;;;;;11.90;75.96;101387.56;4992034;28;20474;-67
2022/03/29 10:53:24;;;;;;;27.25;16.73;;;;;;;12.48;73.07;101391.31;4993772;28;20025;-67
2022/03/29 10:56:15;;;;;;;30.75;17.45;;;;;;;12.60;71.39;101393.44;4992504;28;20501;-66
2022/03/29 10:59:02;;;;;;;30.95;16.05;;;;;;;12.89;69.46;101389.47;4992389;28;20359;-66
2022/03/29 11:01:31;;;;;;;27.55;16.20;;;;;;;12.90;70.22;101383.25;4992826;28;20026;-66
2022/03/29 11:04:06;;;;;;;30.42;17.25;;;;;;;13.08;69.53;101381.53;4992495;28;20413;-66
2022/03/29 11:06:31;;;;;;;26.90;16.27;;;;;;;13.35;67.42;101382.94;4992137;28;20359;-67
2022/03/29 11:09:07;;;;;;;24.55;16.15;;;;;;;13.19;68.11;101377.50;4992683;28;20030;-67
2022/03/29 11:11:40;;;;;;;31.42;17.77;;;;;;;13.25;69.66;101375.41;4991269;28;20041;-66
2022/03/29 11:14:33;;;;;;;29.13;16.35;;;;;;;14.07;64.85;101365.25;5005591;28;20116;-66
2022/03/29 11:17:08;;;;;;;26.88;17.10;;;;;;;13.94;64.65;101362.34;5007587;28;20132;-66
2022/03/29 11:19:47;;;;;;;27.83;16.63;;;;;;;13.56;66.25;101360.63;4992134;28;20042;-66
2022/03/29 11:22:21;;;;;;;26.85;15.90;;;;;;;13.51;66.04;101354.69;4992887;28;20018;-66